createdAt,value
2023-11-09T00:00:15.247Z,1.65
2023-11-09T00:02:43.763Z,1.15
2023-11-09T00:05:12.619Z,1.63
2023-11-09T00:07:42.235Z,1.40
2023-11-09T00:10:11.660Z,1.63
2023-11-09T00:12:42.760Z,1.98
2023-11-09T00:15:12.193Z,1.17
2023-11-09T00:17:41.142Z,1.30
2023-11-09T00:20:11.277Z,1.02
2023-11-09T00:22:40.275Z,1.30
2023-11-09T00:25:09.293Z,1.33
2023-11-09T00:27:37.843Z,1.33
2023-11-09T00:30:09.167Z,1.33
2023-11-09T00:32:38.591Z,1.30
2023-11-09T00:35:10.396Z,1.30
2023-11-09T00:37:39.660Z,1.00
2023-11-09T00:40:11.983Z,1.00
2023-11-09T00:42:41.340Z,1.50
2023-11-09T00:45:12.183Z,1.17
2023-11-09T00:47:42.134Z,1.00
2023-11-09T00:50:11.108Z,1.00
2023-11-09T00:52:40.798Z,1.10
2023-11-09T00:55:10.056Z,1.27
2023-11-09T00:57:38.603Z,1.10
2023-11-09T01:00:08.512Z,1.23
2023-11-09T01:02:39.597Z,1.10
2023-11-09T01:05:09.191Z,1.20
2023-11-09T01:07:38.406Z,1.40
2023-11-09T01:10:08.000Z,1.48
2023-11-09T01:12:36.496Z,1.23
2023-11-09T01:15:05.716Z,1.73
2023-11-09T01:17:37.640Z,1.20
2023-11-09T01:20:09.645Z,1.30
2023-11-09T01:22:38.105Z,1.20
2023-11-09T01:25:08.356Z,1.40
2023-11-09T01:27:36.856Z,1.10
2023-11-09T01:30:05.708Z,1.27
2023-11-09T01:32:34.261Z,1.40
2023-11-09T01:35:03.315Z,1.20
2023-11-09T01:37:33.161Z,1.20
2023-11-09T01:40:01.883Z,1.38
2023-11-09T01:42:30.792Z,1.20
2023-11-09T01:44:59.791Z,1.20
2023-11-09T01:47:28.710Z,1.20
2023-11-09T01:49:57.220Z,1.20
2023-11-09T01:52:26.132Z,1.05
2023-11-09T01:54:56.155Z,1.10
2023-11-09T01:57:26.614Z,1.00
2023-11-09T01:59:55.429Z,1.20
2023-11-09T02:02:24.482Z,1.13
2023-11-09T02:04:54.777Z,1.00
2023-11-09T02:07:23.772Z,0.95
2023-11-09T02:09:52.468Z,1.17
2023-11-09T02:12:22.321Z,0.95
2023-11-09T02:14:50.905Z,1.10
2023-11-09T02:17:20.448Z,1.08
2023-11-09T02:19:49.384Z,1.20
2023-11-09T02:22:18.153Z,1.15
2023-11-09T02:24:51.845Z,1.17
2023-11-09T02:27:20.608Z,1.00
2023-11-09T02:29:49.195Z,1.02
2023-11-09T02:32:18.747Z,1.23
2023-11-09T02:34:50.254Z,1.08
2023-11-09T02:37:20.702Z,0.90
2023-11-09T02:39:54.894Z,0.80
2023-11-09T02:42:23.442Z,1.00
2023-11-09T02:44:52.151Z,1.25
2023-11-09T02:47:20.672Z,1.10
2023-11-09T02:49:50.811Z,1.13
2023-11-09T02:52:19.489Z,0.90
2023-11-09T02:54:48.112Z,0.80
2023-11-09T02:57:18.194Z,0.90
2023-11-09T02:59:48.037Z,0.90
2023-11-09T03:02:16.815Z,0.70
2023-11-09T03:04:45.557Z,0.75
2023-11-09T03:07:14.352Z,1.10
2023-11-09T03:09:42.998Z,1.00
2023-11-09T03:12:11.491Z,0.98
2023-11-09T03:14:41.282Z,0.80
2023-11-09T03:17:11.523Z,0.90
2023-11-09T03:19:41.080Z,0.70
2023-11-09T03:22:11.654Z,0.70
2023-11-09T03:24:42.167Z,1.10
2023-11-09T03:27:11.733Z,0.77
2023-11-09T03:29:41.550Z,0.77
2023-11-09T03:32:11.109Z,1.00
2023-11-09T03:34:40.113Z,0.65
2023-11-09T03:37:09.407Z,0.85
2023-11-09T03:39:38.078Z,0.90
2023-11-09T03:42:07.528Z,0.77
2023-11-09T03:44:36.758Z,0.80
2023-11-09T03:47:07.127Z,1.00
2023-11-09T03:49:40.913Z,0.80
2023-11-09T03:52:09.508Z,0.70
2023-11-09T03:54:38.004Z,0.80
2023-11-09T03:57:06.704Z,0.90
2023-11-09T03:59:35.518Z,0.70
2023-11-09T04:02:05.094Z,0.98
2023-11-09T04:04:35.237Z,0.77
2023-11-09T04:07:03.836Z,1.08
2023-11-09T04:09:32.318Z,1.00
2023-11-09T04:12:01.044Z,1.00
2023-11-09T04:14:29.623Z,1.00
2023-11-09T04:16:58.123Z,0.90
2023-11-09T04:19:26.640Z,1.10
2023-11-09T04:21:56.709Z,1.00
2023-11-09T04:24:25.402Z,1.00
2023-11-09T04:26:54.913Z,0.90
2023-11-09T04:29:23.544Z,1.05
2023-11-09T04:31:52.046Z,1.00
2023-11-09T04:34:20.812Z,0.98
2023-11-09T04:36:51.263Z,0.93
2023-11-09T04:39:29.271Z,0.90
2023-11-09T04:41:59.089Z,1.08
2023-11-09T04:44:29.476Z,0.90
2023-11-09T04:46:58.792Z,0.65
2023-11-09T04:49:28.285Z,0.63
2023-11-09T04:52:04.062Z,1.02
2023-11-09T04:54:46.374Z,0.85
2023-11-09T04:57:33.422Z,0.70
2023-11-09T05:00:19.544Z,0.80
2023-11-09T05:03:05.622Z,0.82
2023-11-09T05:05:51.409Z,0.77
2023-11-09T05:08:19.885Z,0.88
2023-11-09T05:10:49.673Z,0.70
2023-11-09T05:13:18.126Z,0.88
2023-11-09T05:15:47.718Z,0.90
2023-11-09T05:18:16.970Z,0.80
2023-11-09T05:20:45.457Z,0.98
2023-11-09T05:23:13.909Z,1.10
2023-11-09T05:25:42.699Z,0.85
2023-11-09T05:28:13.393Z,0.93
2023-11-09T05:30:41.881Z,0.88
2023-11-09T05:33:10.439Z,1.00
2023-11-09T05:35:38.990Z,1.00
2023-11-09T05:38:07.683Z,0.90
2023-11-09T05:40:36.778Z,0.90
2023-11-09T05:43:05.261Z,1.08
2023-11-09T05:45:35.131Z,0.85
2023-11-09T05:48:03.719Z,0.88
2023-11-09T05:50:32.731Z,0.93
2023-11-09T05:53:01.447Z,1.13
2023-11-09T05:55:32.137Z,1.27
2023-11-09T05:58:00.934Z,1.00
2023-11-09T06:00:29.956Z,1.13
2023-11-09T06:03:00.024Z,0.90
2023-11-09T06:05:29.159Z,1.38
2023-11-09T06:07:58.354Z,0.70
2023-11-09T06:10:27.144Z,0.60
2023-11-09T06:12:55.704Z,0.75
2023-11-09T06:15:25.443Z,0.80
2023-11-09T06:17:53.973Z,0.88
2023-11-09T06:20:23.818Z,0.70
2023-11-09T06:22:54.234Z,0.70
2023-11-09T06:25:22.815Z,0.60
2023-11-09T06:27:51.319Z,0.63
2023-11-09T06:30:19.894Z,0.70
2023-11-09T06:32:49.607Z,0.90
2023-11-09T06:35:19.661Z,0.70
2023-11-09T06:37:51.240Z,0.52
2023-11-09T06:40:20.214Z,0.82
2023-11-09T06:42:51.016Z,0.75
2023-11-09T06:45:20.326Z,0.50
2023-11-09T06:47:49.507Z,0.57
2023-11-09T06:50:20.210Z,0.40
2023-11-09T06:52:52.133Z,0.55
2023-11-09T06:55:21.320Z,0.52
2023-11-09T06:57:51.230Z,0.50
2023-11-09T07:00:22.889Z,0.50
2023-11-09T07:02:51.648Z,0.50
2023-11-09T07:05:23.370Z,0.70
2023-11-09T07:07:53.291Z,0.90
2023-11-09T07:10:21.863Z,0.70
2023-11-09T07:12:50.589Z,0.90
2023-11-09T07:15:19.094Z,0.80
2023-11-09T07:17:48.527Z,0.70
2023-11-09T07:20:16.983Z,0.60
2023-11-09T07:22:45.504Z,0.60
2023-11-09T07:25:16.239Z,0.73
2023-11-09T07:27:45.097Z,0.85
2023-11-09T07:30:13.947Z,0.60
2023-11-09T07:32:45.098Z,0.60
2023-11-09T07:35:14.505Z,0.60
2023-11-09T07:37:43.046Z,0.60
2023-11-09T07:40:14.237Z,0.50
2023-11-09T07:42:44.686Z,0.68
2023-11-09T07:45:14.757Z,0.60
2023-11-09T07:47:44.334Z,0.70
2023-11-09T07:50:15.132Z,0.80
2023-11-09T07:52:43.678Z,0.77
2023-11-09T07:55:12.234Z,0.77
2023-11-09T07:57:41.083Z,0.50
2023-11-09T08:00:12.940Z,0.63
2023-11-09T08:02:42.437Z,0.50
2023-11-09T08:05:14.511Z,0.60
2023-11-09T08:07:44.384Z,0.68
2023-11-09T08:10:13.548Z,0.82
2023-11-09T08:12:43.436Z,0.90
2023-11-09T08:15:14.933Z,0.80
2023-11-09T08:17:44.293Z,0.80
2023-11-09T08:20:16.509Z,0.63
2023-11-09T08:22:46.889Z,0.45
2023-11-09T08:25:16.891Z,0.73
2023-11-09T08:27:45.998Z,0.70
2023-11-09T08:30:17.522Z,0.75
2023-11-09T08:32:48.920Z,0.82
2023-11-09T08:35:19.226Z,0.60
2023-11-09T08:37:48.251Z,0.70
2023-11-09T08:40:18.817Z,0.60
2023-11-09T08:42:49.026Z,0.70
2023-11-09T08:45:19.651Z,0.52
2023-11-09T08:47:49.791Z,0.73
2023-11-09T08:50:18.968Z,0.65
2023-11-09T08:52:47.712Z,0.60
2023-11-09T08:55:17.774Z,0.50
2023-11-09T08:57:46.682Z,0.60
2023-11-09T09:00:17.750Z,0.82
2023-11-09T09:02:50.550Z,0.88
2023-11-09T09:05:20.443Z,0.68
2023-11-09T09:07:50.729Z,0.52
2023-11-09T09:10:22.951Z,0.60
2023-11-09T09:12:53.514Z,0.63
2023-11-09T09:15:21.997Z,0.50
2023-11-09T09:17:53.413Z,0.70
2023-11-09T09:20:22.641Z,0.55
2023-11-09T09:22:54.002Z,0.68
2023-11-09T09:25:23.930Z,0.60
2023-11-09T09:27:53.742Z,0.80
2023-11-09T09:30:26.254Z,0.60
2023-11-09T09:32:57.080Z,0.60
2023-11-09T09:35:29.797Z,0.70
2023-11-09T09:38:06.002Z,0.60
2023-11-09T09:40:45.043Z,0.63
2023-11-09T09:43:21.016Z,0.60
2023-11-09T09:45:57.659Z,0.68
2023-11-09T09:48:29.615Z,0.70
2023-11-09T09:51:01.245Z,0.63
2023-11-09T09:53:32.282Z,0.50
2023-11-09T09:56:01.876Z,0.60
2023-11-09T09:58:30.554Z,0.50
2023-11-09T10:01:03.773Z,0.55
2023-11-09T10:03:35.766Z,0.60
2023-11-09T10:06:07.114Z,0.70
2023-11-09T10:08:36.802Z,0.50
2023-11-09T10:11:06.516Z,0.50
2023-11-09T10:13:36.604Z,0.52
2023-11-09T10:16:06.313Z,0.60
2023-11-09T10:18:36.142Z,0.20
2023-11-09T10:21:07.520Z,0.57
2023-11-09T10:23:36.083Z,0.43
2023-11-09T10:26:04.806Z,0.70
2023-11-09T10:28:34.642Z,0.73
2023-11-09T10:31:03.513Z,0.90
2023-11-09T10:33:33.914Z,0.98
2023-11-09T10:36:06.282Z,1.27
2023-11-09T10:38:37.249Z,1.30
2023-11-09T10:41:16.343Z,1.40
2023-11-09T10:44:02.386Z,1.20
2023-11-09T10:46:33.213Z,2.00
2023-11-09T10:49:04.962Z,1.55
2023-11-09T10:51:36.636Z,1.52
2023-11-09T10:54:05.905Z,1.33
2023-11-09T10:56:35.135Z,1.42
2023-11-09T10:59:06.467Z,1.33
2023-11-09T11:01:37.204Z,1.38
2023-11-09T11:04:10.133Z,1.60
2023-11-09T11:06:51.949Z,1.27
2023-11-09T11:09:27.247Z,1.67
2023-11-09T11:12:02.850Z,1.35
2023-11-09T11:14:34.226Z,1.40
2023-11-09T11:17:27.004Z,1.10
2023-11-09T11:20:18.595Z,1.30
2023-11-09T11:22:59.612Z,1.50
2023-11-09T11:25:36.230Z,1.30
2023-11-09T11:28:06.388Z,1.83
2023-11-09T11:30:37.493Z,1.88
2023-11-09T11:33:09.529Z,1.50
2023-11-09T11:35:43.930Z,1.65
2023-11-09T11:38:23.442Z,1.58
2023-11-09T11:41:01.757Z,2.22
2023-11-09T11:43:39.264Z,1.25
2023-11-09T11:46:13.103Z,1.20
2023-11-09T11:48:44.236Z,1.10
2023-11-09T11:51:14.925Z,1.48
2023-11-09T11:53:45.788Z,1.80
2023-11-09T11:56:21.353Z,1.80
2023-11-09T11:58:53.522Z,1.90
2023-11-09T12:01:32.944Z,1.40
2023-11-09T12:04:06.532Z,1.60
2023-11-09T12:06:37.629Z,1.58
2023-11-09T12:09:11.637Z,1.20
2023-11-09T12:11:46.090Z,0.98
2023-11-09T12:14:16.351Z,1.90
2023-11-09T12:16:45.062Z,1.58
2023-11-09T12:19:15.845Z,2.40
2023-11-09T12:21:46.636Z,1.67
2023-11-09T12:24:23.342Z,1.85
2023-11-09T12:27:06.707Z,2.10
2023-11-09T12:29:37.335Z,2.30
2023-11-09T12:32:07.680Z,2.20
2023-11-09T12:34:39.127Z,1.73
2023-11-09T12:37:13.601Z,2.00
2023-11-09T12:39:44.774Z,1.80
2023-11-09T12:42:20.184Z,2.42
2023-11-09T12:44:48.661Z,2.40
2023-11-09T12:47:19.353Z,2.20
2023-11-09T12:49:50.299Z,1.83
2023-11-09T12:52:19.388Z,1.83
2023-11-09T12:54:49.807Z,1.60
2023-11-09T12:57:19.524Z,1.67
2023-11-09T12:59:49.562Z,1.70
2023-11-09T13:02:20.083Z,1.95
2023-11-09T13:04:54.805Z,1.45
2023-11-09T13:07:26.885Z,1.30
2023-11-09T13:10:10.610Z,1.35
2023-11-09T13:12:41.679Z,1.60
2023-11-09T13:15:15.477Z,3.15
2023-11-09T13:17:52.259Z,1.42
2023-11-09T13:20:33.051Z,1.10
2023-11-09T13:23:10.813Z,1.23
2023-11-09T13:25:42.028Z,1.10
2023-11-09T13:28:12.023Z,1.20
2023-11-09T13:30:52.276Z,1.10
2023-11-09T13:33:31.601Z,1.00
2023-11-09T13:36:04.348Z,1.08
2023-11-09T13:38:41.925Z,1.20
2023-11-09T13:41:19.031Z,1.17
2023-11-09T13:44:00.949Z,1.52
2023-11-09T13:46:38.793Z,1.25
2023-11-09T13:49:19.470Z,1.60
2023-11-09T13:52:03.768Z,1.25
2023-11-09T13:54:44.293Z,1.52
2023-11-09T13:57:20.196Z,1.30
2023-11-09T13:59:58.095Z,1.70
2023-11-09T14:02:31.442Z,1.63
2023-11-09T14:05:09.258Z,1.38
2023-11-09T14:07:41.846Z,1.50
2023-11-09T14:10:14.000Z,1.55
2023-11-09T14:12:52.142Z,2.30
2023-11-09T14:15:26.630Z,1.42
2023-11-09T14:17:57.243Z,1.73
2023-11-09T14:20:35.567Z,2.20
2023-11-09T14:23:07.942Z,1.90
2023-11-09T14:25:39.425Z,1.83
2023-11-09T14:28:13.357Z,1.60
2023-11-09T14:30:46.595Z,2.00
2023-11-09T14:33:19.815Z,1.90
2023-11-09T14:35:48.290Z,1.98
2023-11-09T14:38:19.227Z,1.58
2023-11-09T14:40:51.147Z,1.73
2023-11-09T14:43:21.495Z,1.73
2023-11-09T14:45:50.881Z,1.92
2023-11-09T14:48:23.945Z,2.00
2023-11-09T14:50:54.895Z,1.92
2023-11-09T14:53:34.194Z,2.72
2023-11-09T14:56:08.018Z,1.85
2023-11-09T14:58:37.922Z,2.00
2023-11-09T15:01:07.037Z,2.30
2023-11-09T15:03:36.516Z,2.17
2023-11-09T15:06:12.266Z,1.67
2023-11-09T15:08:42.305Z,2.40
2023-11-09T15:11:14.918Z,2.03
2023-11-09T15:13:48.101Z,1.60
2023-11-09T15:16:20.974Z,2.20
2023-11-09T15:18:51.845Z,2.33
2023-11-09T15:21:22.791Z,2.40
2023-11-09T15:23:51.530Z,2.38
2023-11-09T15:26:20.437Z,2.58
2023-11-09T15:28:50.429Z,3.33
2023-11-09T15:31:20.850Z,2.65
2023-11-09T15:33:49.445Z,2.83
2023-11-09T15:36:18.015Z,2.63
2023-11-09T15:38:48.223Z,2.53
2023-11-09T15:41:22.273Z,2.40
2023-11-09T15:43:55.598Z,2.22
2023-11-09T15:46:24.863Z,2.20
2023-11-09T15:48:54.658Z,2.22
2023-11-09T15:51:31.676Z,2.00
2023-11-09T15:54:00.656Z,2.10
2023-11-09T15:56:30.312Z,2.50
2023-11-09T15:59:01.002Z,2.22
2023-11-09T16:01:29.664Z,2.10
2023-11-09T16:03:58.632Z,2.00
2023-11-09T16:06:28.413Z,2.10
2023-11-09T16:08:56.953Z,2.28
2023-11-09T16:11:25.554Z,1.95
2023-11-09T16:13:54.220Z,2.58
2023-11-09T16:16:26.033Z,2.67
2023-11-09T16:18:55.645Z,1.80
2023-11-09T16:21:24.184Z,1.88
2023-11-09T16:23:53.821Z,2.45
2023-11-09T16:26:26.813Z,1.42
2023-11-09T16:29:01.552Z,1.65
2023-11-09T16:31:31.703Z,2.05
2023-11-09T16:34:00.224Z,1.80
2023-11-09T16:36:29.512Z,1.70
2023-11-09T16:38:59.284Z,1.75
2023-11-09T16:41:27.813Z,1.60
2023-11-09T16:43:56.415Z,1.85
2023-11-09T16:46:25.042Z,2.20
2023-11-09T16:48:55.432Z,1.83
2023-11-09T16:51:24.074Z,2.00
2023-11-09T16:53:52.533Z,1.70
2023-11-09T16:56:22.052Z,1.70
2023-11-09T16:58:50.950Z,2.08
2023-11-09T17:01:20.465Z,1.88
2023-11-09T17:03:49.905Z,2.10
2023-11-09T17:06:19.915Z,2.00
2023-11-09T17:08:49.043Z,2.13
2023-11-09T17:11:17.639Z,1.85
2023-11-09T17:13:46.262Z,2.08
2023-11-09T17:16:14.843Z,2.10
2023-11-09T17:18:44.402Z,2.33
2023-11-09T17:21:13.510Z,1.58
2023-11-09T17:23:44.698Z,1.90
2023-11-09T17:26:13.490Z,1.60
2023-11-09T17:28:42.740Z,1.80
2023-11-09T17:31:11.217Z,1.75
2023-11-09T17:33:39.730Z,2.10
2023-11-09T17:36:09.201Z,1.60
2023-11-09T17:38:37.792Z,3.30
2023-11-09T17:41:07.954Z,2.13
2023-11-09T17:43:38.187Z,1.90
2023-11-09T17:46:06.858Z,2.38
2023-11-09T17:48:35.556Z,2.40
2023-11-09T17:51:06.143Z,1.65
2023-11-09T17:53:34.586Z,1.85
2023-11-09T17:56:03.318Z,1.92
2023-11-09T17:58:33.892Z,1.77
2023-11-09T18:01:02.400Z,2.10
2023-11-09T18:03:31.512Z,1.67
2023-11-09T18:06:00.071Z,2.10
2023-11-09T18:08:28.548Z,2.03
2023-11-09T18:10:57.983Z,1.50
2023-11-09T18:13:27.568Z,2.33
2023-11-09T18:15:58.015Z,2.28
2023-11-09T18:18:28.204Z,1.80
2023-11-09T18:20:59.676Z,1.77
2023-11-09T18:23:29.688Z,1.88
2023-11-09T18:25:58.156Z,1.70
2023-11-09T18:28:27.127Z,1.55
2023-11-09T18:30:57.189Z,2.22
2023-11-09T18:33:25.732Z,2.10
2023-11-09T18:35:54.725Z,1.63
2023-11-09T18:38:23.298Z,1.67
2023-11-09T18:40:51.903Z,1.80
2023-11-09T18:43:20.432Z,1.70
2023-11-09T18:45:49.431Z,2.28
2023-11-09T18:48:19.383Z,2.40
2023-11-09T18:53:19.739Z,1.92
2023-11-09T18:55:48.233Z,2.70
2023-11-09T18:58:16.744Z,1.88
2023-11-09T19:00:45.340Z,2.15
2023-11-09T19:05:46.932Z,2.80
2023-11-09T19:08:17.438Z,2.67
2023-11-09T19:10:46.313Z,2.13
2023-11-09T19:13:14.889Z,2.00
2023-11-09T19:15:43.441Z,1.88
2023-11-09T19:18:12.375Z,2.00
2023-11-09T19:23:16.748Z,1.67
2023-11-09T19:25:45.265Z,1.02
2023-11-09T19:28:13.741Z,0.93
2023-11-09T19:30:42.262Z,0.77
2023-11-09T19:33:11.039Z,0.50
2023-11-09T19:35:39.735Z,0.38
2023-11-09T19:38:11.230Z,0.45
2023-11-09T19:40:46.264Z,0.50
2023-11-09T19:43:15.464Z,0.43
2023-11-09T19:45:45.123Z,0.50
2023-11-09T19:48:14.262Z,0.68
2023-11-09T19:50:43.065Z,0.30
2023-11-09T19:53:11.970Z,0.30
2023-11-09T19:55:41.887Z,0.40
2023-11-09T19:58:10.518Z,0.38
2023-11-09T20:00:39.170Z,0.35
2023-11-09T20:03:08.361Z,0.47
2023-11-09T20:05:37.244Z,0.20
2023-11-09T20:08:06.838Z,0.40
2023-11-09T20:10:35.495Z,0.30
2023-11-09T20:13:05.542Z,0.30
2023-11-09T20:15:34.847Z,0.30
2023-11-09T20:18:03.539Z,0.50
2023-11-09T20:20:32.667Z,0.50
2023-11-09T20:23:01.488Z,0.40
2023-11-09T20:25:29.904Z,0.60
2023-11-09T20:27:59.482Z,0.70
2023-11-09T20:30:30.153Z,0.73
2023-11-09T20:33:00.969Z,0.60
2023-11-09T20:35:29.532Z,0.70
2023-11-09T20:38:02.102Z,0.70
2023-11-09T20:40:31.196Z,0.90
2023-11-09T20:42:59.635Z,0.40
2023-11-09T20:45:29.543Z,0.70
2023-11-09T20:47:58.333Z,0.90
2023-11-09T20:50:28.085Z,0.60
2023-11-09T20:52:56.795Z,0.50
2023-11-09T20:55:25.274Z,0.65
2023-11-09T20:57:53.996Z,0.40
2023-11-09T21:00:25.888Z,0.63
2023-11-09T21:02:56.218Z,0.68
2023-11-09T21:05:24.963Z,0.55
2023-11-09T21:07:54.443Z,0.60
2023-11-09T21:10:23.598Z,0.50
2023-11-09T21:12:52.231Z,0.50
2023-11-09T21:15:21.354Z,0.57
2023-11-09T21:17:49.895Z,0.60
2023-11-09T21:20:19.830Z,0.52
2023-11-09T21:22:48.787Z,0.47
2023-11-09T21:25:17.343Z,0.93
2023-11-09T21:27:47.002Z,0.70
2023-11-09T21:30:17.639Z,0.80
2023-11-09T21:32:46.966Z,0.70
2023-11-09T21:35:17.396Z,0.40
2023-11-09T21:37:49.016Z,0.60
2023-11-09T21:40:19.450Z,0.68
2023-11-09T21:42:48.522Z,1.25
2023-11-09T21:45:18.962Z,0.60
2023-11-09T21:47:48.027Z,0.68
2023-11-09T21:50:17.076Z,0.80
2023-11-09T21:52:48.921Z,0.90
2023-11-09T21:55:20.831Z,0.75
2023-11-09T21:57:49.415Z,0.70
2023-11-09T22:00:19.435Z,0.70
2023-11-09T22:02:48.610Z,0.80
2023-11-09T22:05:17.996Z,0.88
2023-11-09T22:07:47.776Z,1.17
2023-11-09T22:10:16.545Z,1.38
2023-11-09T22:12:45.298Z,1.58
2023-11-09T22:15:14.574Z,1.52
2023-11-09T22:17:45.393Z,1.85
2023-11-09T22:20:14.280Z,1.45
2023-11-09T22:22:44.998Z,1.30
2023-11-09T22:25:15.217Z,1.10
2023-11-09T22:27:45.498Z,0.90
2023-11-09T22:30:14.553Z,0.65
2023-11-09T22:32:43.219Z,0.80
2023-11-09T22:35:11.891Z,0.68
2023-11-09T22:37:40.385Z,0.80
2023-11-09T22:40:11.668Z,0.80
2023-11-09T22:42:41.930Z,0.80
2023-11-09T22:45:11.114Z,0.80
2023-11-09T22:47:43.444Z,0.80
2023-11-09T22:50:12.849Z,0.80
2023-11-09T22:52:41.881Z,0.80
2023-11-09T22:55:10.907Z,0.70
2023-11-09T22:57:40.786Z,0.60
2023-11-09T23:00:19.690Z,0.88
2023-11-09T23:02:50.916Z,0.80
2023-11-09T23:05:19.960Z,0.60
2023-11-09T23:07:48.846Z,0.60
2023-11-09T23:10:17.668Z,0.63
2023-11-09T23:13:05.883Z,0.60
2023-11-09T23:15:35.790Z,0.60
2023-11-09T23:18:04.760Z,0.70
2023-11-09T23:20:33.309Z,0.70
2023-11-09T23:23:02.056Z,0.90
2023-11-09T23:25:30.573Z,0.90
2023-11-09T23:27:59.606Z,0.90
2023-11-09T23:30:29.771Z,0.70
2023-11-09T23:32:58.298Z,0.80
2023-11-09T23:35:27.869Z,0.60
2023-11-09T23:37:56.356Z,0.60
2023-11-09T23:40:25.062Z,0.90
2023-11-09T23:42:53.559Z,1.00
2023-11-09T23:45:22.358Z,0.70
2023-11-09T23:47:52.221Z,0.90
2023-11-09T23:50:20.740Z,0.90
2023-11-09T23:52:49.182Z,0.60
2023-11-09T23:55:17.955Z,0.70
2023-11-09T23:57:47.333Z,0.70
